| Time | Avg. Air Temp | Dew Point | Avg. Rel Humidity | Avg. 2 Min Wind Speed | Max Gust Velocity | MGV Time | MGV Direction | Avg. Spot Wind Velocity |
|---|---|---|---|---|---|---|---|---|
| 2026-05-08 02:05:00 | 5° C | -6° C | 42% | 16 km/h | 21 km/h | 02:01:00 | SW | 18 km/h |
| 01:05:00 | 5° C | -4° C | 52% | 17 km/h | 20 km/h | 01:05:00 | W | 15 km/h |
| 00:05:00 | 5° C | -5° C | 53% | 19 km/h | 21 km/h | 00:03:00 | SW | 18 km/h |
| 23:05:00 | 5° C | -5° C | 51% | 15 km/h | 17 km/h | 23:02:00 | W | 16 km/h |
| 22:05:00 | 5° C | -4° C | 51% | 12 km/h | 14 km/h | 22:01:00 | SW | 12 km/h |
| 21:05:00 | 5° C | -4° C | 51% | 13 km/h | 14 km/h | 21:04:00 | W | 11 km/h |
| 20:05:00 | 5° C | -4° C | 52% | 11 km/h | 12 km/h | 20:04:00 | W | 11 km/h |
| 19:05:00 | 6° C | -4° C | 49% | 9 km/h | 15 km/h | 19:01:00 | W | 11 km/h |
| 18:05:00 | 5° C | -4° C | 52% | 13 km/h | 20 km/h | 18:05:00 | NW | 8 km/h |
| 17:05:00 | 6° C | -3° C | 52% | 3 km/h | 11 km/h | 17:02:00 | NW | 3 km/h |
| 16:05:00 | 6° C | -4° C | 52% | 11 km/h | 20 km/h | 16:04:00 | NW | 12 km/h |
| 15:05:00 | 5° C | -3° C | 54% | 8 km/h | 16 km/h | 15:05:00 | W | 10 km/h |
| 14:05:00 | 4° C | -3° C | 60% | 13 km/h | 19 km/h | 14:02:00 | W | 13 km/h |
| 13:05:00 | 3° C | -3° C | 64% | 5 km/h | 11 km/h | 13:02:00 | NW | 6 km/h |
| 12:05:00 | 3° C | -2° C | 65% | 9 km/h | 12 km/h | 12:04:00 | W | 7 km/h |
| 11:05:00 | 2° C | 0° C | 87% | 6 km/h | 11 km/h | 11:01:00 | E | 7 km/h |
| 10:05:00 | 1° C | 2° C | 100% | 2 km/h | 3 km/h | 10:05:00 | N | 1 km/h |
| 09:05:00 | 1° C | 1° C | 100% | 1 km/h | 6 km/h | 09:02:00 | W | 1 km/h |
| 08:05:00 | 0° C | 0° C | 100% | 12 km/h | 16 km/h | 08:05:00 | NW | 13 km/h |
| 07:05:00 | 1° C | 0° C | 100% | 14 km/h | 16 km/h | 07:01:00 | NW | 13 km/h |
| 06:05:00 | 1° C | 1° C | 100% | 20 km/h | 26 km/h | 06:05:00 | NW | 19 km/h |
| 05:05:00 | 2° C | 2° C | 100% | 16 km/h | 21 km/h | 05:03:00 | W | 16 km/h |
| 04:05:00 | 2° C | 2° C | 100% | 18 km/h | 21 km/h | 04:04:00 | W | 18 km/h |
| 03:05:00 | 2° C | 2° C | 100% | 21 km/h | 26 km/h | 03:02:00 | NW | 21 km/h |
Subpeak Weather
| Time | Avg. Air Temp | Dew Point | Avg. Rel Humidity | Avg. 2 Min Wind Speed | Max Gust Velocity | MGV Time | MGV Direction | Avg. Spot Wind Velocity |
|---|---|---|---|---|---|---|---|---|
| 2026-05-08 02:05:00 | 5° C | -6° C | 42% | 16 km/h | 21 km/h | 02:01:00 | SW | 18 km/h |
| 02:00:00 | 5° C | -7° C | 42% | 19 km/h | 22 km/h | 02:00:00 | W | 19 km/h |
| 01:55:00 | 5° C | -7° C | 43% | 19 km/h | 21 km/h | 01:54:00 | SW | 19 km/h |
| 01:50:00 | 5° C | -7° C | 43% | 19 km/h | 23 km/h | 01:48:00 | W | 19 km/h |
| 01:45:00 | 5° C | -6° C | 43% | 18 km/h | 21 km/h | 01:42:00 | SW | 17 km/h |
| 01:40:00 | 5° C | -6° C | 44% | 18 km/h | 20 km/h | 01:38:00 | W | 17 km/h |
| 01:35:00 | 5° C | -6° C | 44% | 19 km/h | 22 km/h | 01:31:00 | SW | 19 km/h |
| 01:30:00 | 5° C | -6° C | 46% | 19 km/h | 21 km/h | 01:29:00 | SW | 18 km/h |
| 01:25:00 | 5° C | -5° C | 45% | 18 km/h | 21 km/h | 01:21:00 | SW | 19 km/h |
| 01:20:00 | 5° C | -5° C | 47% | 19 km/h | 21 km/h | 01:20:00 | SW | 18 km/h |
| 01:15:00 | 5° C | -6° C | 50% | 18 km/h | 21 km/h | 01:14:00 | SW | 17 km/h |
| 01:10:00 | 5° C | -4° C | 49% | 15 km/h | 17 km/h | 01:06:00 | SW | 14 km/h |
| 01:05:00 | 5° C | -4° C | 52% | 17 km/h | 20 km/h | 01:05:00 | W | 15 km/h |




